Bitte die für das Benutzerkonto hinterlegte E-Mail-Adresse eingeben. Der Benutzername wird dann an diese E-Mail-Adresse geschickt.

WebCam

  
Kamera Halle
Kamera Vorfeld

GPS Triangle WM Sports Class

AeroClub Göppingen-Salach e.V.
Ausrichter der Modellflug
GPS Triangle-WM 2020

 

Aufgrund der aktuellen Corona Situation ist die WM auf den 15.8.-20.8.2021 verschoben
Wetter EDDS

METAR

EDDS 030220Z 04001KT CAVOK 11/07 Q1010 =
EDDS 022300Z 0300/0324 VRB03KT CAVOK BECMG 0309/0311 26005KT PROB30 TEMPO 0312/0318 26020G35KT TSRA BKN050CB BECMG 0318/0320 VRB03KT PROB30 TEMPO 0318/0324 23015G25KT SHRA BKN050CB


TAF

EDDS 022300Z 0300/0324 VRB03KT CAVOK BECMG 0309/0311 26005KT PROB30 TEMPO 0312/0318 26020G35KT TSRA BKN050CB BECMG 0318/0320 VRB03KT PROB30 TEMPO 0318/0324 23015G25KT SHRA BKN050CB =


SR/SS

03:21 / 19:17 UTC
(EDSO 03-06-2020)